createdAt,value
2023-01-08T00:01:34.728Z,8.17
2023-01-08T00:04:04.037Z,8.24
2023-01-08T00:06:33.102Z,8.19
2023-01-08T00:09:02.389Z,8.23
2023-01-08T00:11:30.151Z,8.23
2023-01-08T00:13:57.989Z,8.20
2023-01-08T00:16:25.560Z,8.25
2023-01-08T00:18:54.519Z,8.19
2023-01-08T00:21:22.074Z,8.21
2023-01-08T00:23:49.937Z,8.28
2023-01-08T00:26:17.594Z,8.36
2023-01-08T00:28:45.059Z,8.29
2023-01-08T00:31:13.931Z,8.25
2023-01-08T00:33:43.316Z,8.24
2023-01-08T00:36:16.916Z,8.28
2023-01-08T00:38:47.372Z,8.31
2023-01-08T00:41:18.312Z,8.29
2023-01-08T00:43:47.293Z,8.30
2023-01-08T00:46:21.706Z,8.29
2023-01-08T00:48:49.284Z,8.38
2023-01-08T00:51:16.517Z,8.33
2023-01-08T00:53:44.078Z,8.32
2023-01-08T00:56:11.914Z,8.30
2023-01-08T00:58:39.665Z,8.32
2023-01-08T01:01:15.734Z,8.34
2023-01-08T01:03:43.556Z,8.28
2023-01-08T01:06:12.527Z,8.33
2023-01-08T01:08:40.211Z,8.31
2023-01-08T01:11:13.773Z,8.27
2023-01-08T01:13:43.512Z,8.35
2023-01-08T01:16:10.982Z,8.32
2023-01-08T01:18:41.438Z,8.32
2023-01-08T01:21:29.836Z,8.35
2023-01-08T01:24:00.866Z,8.32
2023-01-08T01:26:28.741Z,8.37
2023-01-08T01:29:00.386Z,8.43
2023-01-08T01:31:32.725Z,8.40
2023-01-08T01:34:00.721Z,8.37
2023-01-08T01:36:28.687Z,8.38
2023-01-08T01:38:59.668Z,8.40
2023-01-08T01:41:32.774Z,8.36
2023-01-08T01:44:21.419Z,8.48
2023-01-08T01:46:50.616Z,8.44
2023-01-08T01:49:26.551Z,8.46
2023-01-08T01:52:02.746Z,8.43
2023-01-08T01:54:35.211Z,8.44
2023-01-08T01:57:03.499Z,8.43
2023-01-08T01:59:30.974Z,8.49
2023-01-08T02:01:59.193Z,8.55
2023-01-08T02:04:29.529Z,8.46
2023-01-08T02:07:40.343Z,8.53
2023-01-08T02:10:13.171Z,8.50
2023-01-08T02:12:51.977Z,8.53
2023-01-08T02:15:29.052Z,8.50
2023-01-08T02:18:21.384Z,8.45
2023-01-08T02:21:06.510Z,8.48
2023-01-08T02:24:15.293Z,8.48
2023-01-08T02:26:47.617Z,8.44
2023-01-08T02:29:23.908Z,8.43
2023-01-08T02:31:51.393Z,8.44
2023-01-08T02:34:22.641Z,8.42
2023-01-08T02:36:57.839Z,8.46
2023-01-08T02:39:37.281Z,8.48
2023-01-08T02:42:19.897Z,8.47
2023-01-08T02:45:00.190Z,8.42
2023-01-08T02:47:36.271Z,8.37
2023-01-08T02:50:22.104Z,8.30
2023-01-08T02:52:55.346Z,8.34
2023-01-08T02:55:26.886Z,8.31
2023-01-08T02:57:54.545Z,8.35
2023-01-08T03:00:22.536Z,8.29
2023-01-08T03:02:55.587Z,8.29
2023-01-08T03:05:28.897Z,8.26
2023-01-08T03:07:57.213Z,8.23
2023-01-08T03:10:29.225Z,8.20
2023-01-08T03:13:05.396Z,8.18
2023-01-08T03:15:38.543Z,8.10
2023-01-08T03:18:11.710Z,8.17
2023-01-08T03:20:40.052Z,8.13
2023-01-08T03:23:11.387Z,8.16
2023-01-08T03:25:42.947Z,8.21
2023-01-08T03:28:19.402Z,8.19
2023-01-08T03:30:49.295Z,8.19
2023-01-08T03:33:19.387Z,8.15
2023-01-08T03:35:50.722Z,8.15
2023-01-08T03:38:30.109Z,8.12
2023-01-08T03:41:06.440Z,8.17
2023-01-08T03:43:34.098Z,8.22
2023-01-08T03:46:06.666Z,8.21
2023-01-08T03:48:36.526Z,8.22
2023-01-08T03:51:04.169Z,8.20
2023-01-08T03:53:31.517Z,8.20
2023-01-08T03:56:01.923Z,8.21
2023-01-08T03:58:29.322Z,8.19
2023-01-08T04:01:00.462Z,8.32
2023-01-08T04:03:28.179Z,8.21
2023-01-08T04:05:55.926Z,8.20
2023-01-08T04:08:23.286Z,8.23
2023-01-08T04:10:50.772Z,8.26
2023-01-08T04:13:18.217Z,8.24
2023-01-08T04:15:50.467Z,8.23
2023-01-08T04:18:20.636Z,8.27
2023-01-08T04:20:49.056Z,8.27
2023-01-08T04:23:19.489Z,8.27
2023-01-08T04:25:47.002Z,8.34
2023-01-08T04:28:16.983Z,8.28
2023-01-08T04:30:46.753Z,8.29
2023-01-08T04:33:18.578Z,8.35
2023-01-08T04:35:45.657Z,8.30
2023-01-08T04:38:16.014Z,8.31
2023-01-08T04:40:43.507Z,8.31
2023-01-08T04:43:10.936Z,8.27
2023-01-08T04:45:38.675Z,8.27
2023-01-08T04:48:06.251Z,8.24
2023-01-08T04:50:34.475Z,8.22
2023-01-08T04:53:01.911Z,8.27
2023-01-08T04:55:29.295Z,8.26
2023-01-08T04:57:56.722Z,8.30
2023-01-08T05:00:24.133Z,8.27
2023-01-08T05:02:51.801Z,8.29
2023-01-08T05:05:19.276Z,8.23
2023-01-08T05:07:46.603Z,8.27
2023-01-08T05:10:13.961Z,8.24
2023-01-08T05:12:41.229Z,8.23
2023-01-08T05:15:09.635Z,8.21
2023-01-08T05:17:36.768Z,8.25
2023-01-08T05:20:04.492Z,8.29
2023-01-08T05:22:31.885Z,8.22
2023-01-08T05:24:59.405Z,8.17
2023-01-08T05:27:26.767Z,8.15
2023-01-08T05:29:53.932Z,8.16
2023-01-08T05:32:24.058Z,8.18
2023-01-08T05:34:51.565Z,8.13
2023-01-08T05:37:18.911Z,8.10
2023-01-08T05:39:49.346Z,8.11
2023-01-08T05:42:16.584Z,8.10
2023-01-08T05:44:44.085Z,8.09
2023-01-08T05:47:11.338Z,8.05
2023-01-08T05:49:42.080Z,8.01
2023-01-08T05:52:09.454Z,8.00
2023-01-08T05:54:36.721Z,7.98
2023-01-08T05:57:06.994Z,8.05
2023-01-08T05:59:34.497Z,8.02
2023-01-08T06:02:02.009Z,8.02
2023-01-08T06:04:29.373Z,8.02
2023-01-08T06:06:58.890Z,8.02
2023-01-08T06:09:26.399Z,7.97
2023-01-08T06:11:53.697Z,7.96
2023-01-08T06:14:21.235Z,7.94
2023-01-08T06:16:49.131Z,8.02
2023-01-08T06:19:16.486Z,7.99
2023-01-08T06:21:44.013Z,8.02
2023-01-08T06:24:11.408Z,8.07
2023-01-08T06:26:38.967Z,8.01
2023-01-08T06:29:06.615Z,7.97
2023-01-08T06:31:34.189Z,7.99
2023-01-08T06:34:01.785Z,8.06
2023-01-08T06:36:29.983Z,8.03
2023-01-08T06:39:06.146Z,8.09
2023-01-08T06:41:35.256Z,8.10
2023-01-08T06:44:02.712Z,8.05
2023-01-08T06:46:34.545Z,8.11
2023-01-08T06:49:05.497Z,8.05
2023-01-08T06:51:33.509Z,8.05
2023-01-08T06:54:13.576Z,8.10
2023-01-08T06:56:53.032Z,8.07
2023-01-08T06:59:24.657Z,8.04
2023-01-08T07:01:52.059Z,8.06
2023-01-08T07:04:21.001Z,8.07
2023-01-08T07:06:48.795Z,8.02
2023-01-08T07:09:16.710Z,8.04
2023-01-08T07:11:51.885Z,8.10
2023-01-08T07:14:20.229Z,8.07
2023-01-08T07:16:47.532Z,8.10
2023-01-08T07:19:14.958Z,8.12
2023-01-08T07:21:42.484Z,8.13
2023-01-08T07:24:10.069Z,8.11
2023-01-08T07:26:37.343Z,8.07
2023-01-08T07:29:04.625Z,8.09
2023-01-08T07:31:31.905Z,8.13
2023-01-08T07:33:59.394Z,8.12
2023-01-08T07:36:26.635Z,8.17
2023-01-08T07:38:53.848Z,8.17
2023-01-08T07:41:21.179Z,8.23
2023-01-08T07:43:49.240Z,8.15
2023-01-08T07:46:17.105Z,8.14
2023-01-08T07:48:44.267Z,8.18
2023-01-08T07:51:11.594Z,8.24
2023-01-08T07:53:38.943Z,8.17
2023-01-08T07:56:08.904Z,8.18
2023-01-08T07:58:36.530Z,8.22
2023-01-08T08:01:04.434Z,8.23
2023-01-08T08:03:32.289Z,8.19
2023-01-08T08:06:01.700Z,8.22
2023-01-08T08:08:28.929Z,8.31
2023-01-08T08:10:59.009Z,8.23
2023-01-08T08:13:26.583Z,8.22
2023-01-08T08:15:54.188Z,8.21
2023-01-08T08:18:22.922Z,8.22
2023-01-08T08:20:52.318Z,8.23
2023-01-08T08:23:20.593Z,8.26
2023-01-08T08:25:49.093Z,8.27
2023-01-08T08:28:16.327Z,8.27
2023-01-08T08:30:49.409Z,8.35
2023-01-08T08:33:16.409Z,8.32
2023-01-08T08:35:49.552Z,8.38
2023-01-08T08:38:17.061Z,8.44
2023-01-08T08:40:45.822Z,8.47
2023-01-08T08:43:13.220Z,8.44
2023-01-08T08:45:40.658Z,8.47
2023-01-08T08:48:09.032Z,8.38
2023-01-08T08:50:36.992Z,8.38
2023-01-08T08:53:06.135Z,8.38
2023-01-08T08:55:34.711Z,8.41
2023-01-08T08:58:08.597Z,8.39
2023-01-08T09:00:35.783Z,8.41
2023-01-08T09:15:47.326Z,8.40
2023-01-08T09:18:39.555Z,8.38
2023-01-08T09:21:07.954Z,8.44
2023-01-08T09:23:35.760Z,8.46
2023-01-08T09:26:06.701Z,8.47
2023-01-08T09:28:53.236Z,8.48
2023-01-08T09:31:20.766Z,8.48
2023-01-08T09:33:49.168Z,8.49
2023-01-08T09:36:16.404Z,8.46
2023-01-08T09:38:45.309Z,8.48
2023-01-08T09:41:21.543Z,8.49
2023-01-08T10:06:38.311Z,8.77
2023-01-08T10:09:07.658Z,8.76
2023-01-08T10:11:43.735Z,8.77
2023-01-08T10:14:23.400Z,8.80
2023-01-08T10:16:59.576Z,8.76
